Terminal Aerodrome Forecast
Issued by NWS

Current Version | Previous Version | Graphics & Text | Print | Product List | Glossary On
Versions: 1 2 3 4 5 6 7 8 9 10 11 12 13 14 15 16 17 18 19
000
FTUS41 KPBZ 270845 AAD
TAFHLG
TAF AMD
KHLG 270845Z 2709/2806 00000KT 1/4SM FG BKN001
     FM271200 VRB03KT 2SM BR BKN020
     FM271400 02005KT P6SM BKN035
     FM272100 01005KT P6SM SCT050=

USA.gov is the U.S. government's official web portal to all federal, state and local government web resources and services.